Ever Unicorn — 9V7963 — position and weather

sailwx.info

Track history (hours):
 
Tides and Currents Weather Stations Pressure Air Temp Water Temp Dewpoint Dewpoint Depression Visibility Wind Speed Wind Dir Waves Ship Positions

Ever Unicorn

Last reported at 2016-Aug-30 15:16 UTC. Time now 2016-Aug-30 20:50 UTC.
Position N 38°13' W 125°30'.

Length 285 m; draft 11.2 m.

Type: Ship (hazmat cat D). MMSI: 564995000.

Date/timePositionNaut miles runAvg speedWind from/ knotsBaromVisibWave heightAir tempDewpointWater temp
2016-Aug-30 15:16N 38°13' W 125°30'1312.5
2016-Aug-30 14:14N 38°12' W 125°13'912.8
2016-Aug-30 13:33N 38°12' W 125°02'1313.0
2016-Aug-30 12:33N 38°12' W 124°46'1313.2
2016-Aug-30 11:33N 38°11' W 124°29'1313.5
2016-Aug-30 10:33N 38°11' W 124°12'1313.1
2016-Aug-30 09:33N 38°10' W 123°55'1312.6
2016-Aug-30 08:33N 38°10' W 123°39'1212.5
2016-Aug-30 07:34N 38°09' W 123°23'9 9.2
2016-Aug-30 06:33N 38°04' W 123°14'9 9.3
2016-Aug-30 05:33N 37°57' W 123°06'9 9.3
2016-Aug-30 04:33N 37°53' W 122°55'9 9.2
2016-Aug-30 03:33N 37°48' W 122°45'9 9.3
2016-Aug-30 02:33N 37°47' W 122°34'1010.0
2016-Aug-30 01:33N 37°48' W 122°21'1 0.6
2016-Aug-30 00:31N 37°48' W 122°20'0 0.0
2016-Aug-29 23:34N 37°48' W 122°20'0 0.0
2016-Aug-29 22:34N 37°48' W 122°20'0 0.0
2016-Aug-29 21:33N 37°48' W 122°20'0 0.0
2016-Aug-29 20:34N 37°48' W 122°20'0 0.0
2016-Aug-29 19:33N 37°48' W 122°20'0 0.0
2016-Aug-29 18:34N 37°48' W 122°20'0 0.0
2016-Aug-29 17:34N 37°48' W 122°20'0 0.0
2016-Aug-29 16:34N 37°48' W 122°20'0 0.0
2016-Aug-29 15:34N 37°48' W 122°20'0 0.0
2016-Aug-29 14:33N 37°48' W 122°20'0 0.0
2016-Aug-29 13:34N 37°48' W 122°20'0 0.0
2016-Aug-29 12:34N 37°48' W 122°20'0 0.0
2016-Aug-29 11:34N 37°48' W 122°20'0 0.0
2016-Aug-29 10:34N 37°48' W 122°20'0 0.0
2016-Aug-29 09:34N 37°48' W 122°20'0 0.0
2016-Aug-29 08:34N 37°48' W 122°20'0 0.0
2016-Aug-29 07:34N 37°48' W 122°20'0 0.0
2016-Aug-29 06:34N 37°48' W 122°20'0 0.0
2016-Aug-29 05:34N 37°48' W 122°20'0 0.0
2016-Aug-29 04:34N 37°48' W 122°20'0 0.0
2016-Aug-29 03:34N 37°48' W 122°20'0 0.0
2016-Aug-29 02:34N 37°48' W 122°20'0 0.0
2016-Aug-29 01:34N 37°48' W 122°20'0 0.0
2016-Aug-29 00:34N 37°48' W 122°20'0 0.0
2016-Aug-28 23:34N 37°48' W 122°20'1 0.7
2016-Aug-28 22:34N 37°49' W 122°20'9 9.1
2016-Aug-28 21:33N 37°48' W 122°31'9 8.8
2016-Aug-28 20:34N 37°42' W 122°40'7 7.0
2016-Aug-28 19:34N 37°35' W 122°40'9 8.5
2016-Aug-28 18:34N 37°27' W 122°40'9 9.1
2016-Aug-28 17:34N 37°18' W 122°40'1110.5
2016-Aug-28 16:33N 37°07' W 122°42'1111.0
2016-Aug-28 15:34N 36°56' W 122°44'0 0.4
2016-Aug-28 14:34N 36°56' W 122°45'0 0.4
2016-Aug-28 13:33N 36°56' W 122°45'0 0.3
2016-Aug-28 12:34N 36°56' W 122°45'0 0.3
2016-Aug-28 11:34N 36°56' W 122°46'0 0.4
2016-Aug-28 10:33N 36°56' W 122°46'0 0.5
2016-Aug-28 09:34N 36°56' W 122°47'0 0.4
2016-Aug-28 08:33N 36°56' W 122°47'0 0.4
2016-Aug-28 07:34N 36°56' W 122°48'0 0.3
2016-Aug-28 06:34N 36°56' W 122°48'0 0.2
2016-Aug-28 05:34N 36°56' W 122°48'0 0.2
2016-Aug-28 04:33N 36°56' W 122°48'4 4.1
2016-Aug-28 03:33N 36°53' W 122°44'1313.2
2016-Aug-28 02:34N 36°44' W 122°31'1312.7
2016-Aug-28 01:33N 36°34' W 122°22'1313.2
2016-Aug-28 00:33N 36°22' W 122°15'1313.3
2016-Aug-27 23:33N 36°10' W 122°07'1313.3
2016-Aug-27 22:33N 35°59' W 121°59'1313.1
2016-Aug-27 21:33N 35°48' W 121°51'1313.1
2016-Aug-27 20:33N 35°36' W 121°43'1312.7
2016-Aug-27 19:33N 35°26' W 121°34'1312.8
2016-Aug-27 18:33N 35°15' W 121°26'1312.9
2016-Aug-27 17:33N 35°03' W 121°18'1312.9
2016-Aug-27 16:33N 34°52' W 121°11'1313.0
2016-Aug-27 15:33N 34°41' W 121°02'3812.1
2016-Aug-27 12:23N 34°20' W 120°24'1713.5
2016-Aug-27 11:07N 34°15' W 120°03'812.9
2016-Aug-27 10:32N 34°13' W 119°55'1512.4
2016-Aug-27 09:20N 34°09' W 119°37'1012.9
2016-Aug-27 08:33N 34°07' W 119°26'1412.6
2016-Aug-27 07:27N 34°02' W 119°10'1112.2
2016-Aug-27 06:32N 33°56' W 118°58'2211.3
2016-Aug-27 04:33N 33°45' W 118°35'1111.3
2016-Aug-27 03:33N 33°40' W 118°23'7 6.8
2016-Aug-27 02:33N 33°43' W 118°16'1 0.8
2016-Aug-27 01:32N 33°44' W 118°15'0 0.0
2016-Aug-27 00:34N 33°44' W 118°15'0 0.0
2016-Aug-26 23:33N 33°44' W 118°15'0 0.0
2016-Aug-26 22:30N 33°44' W 118°15'0 0.0
2016-Aug-26 21:05N 33°44' W 118°15'0 0.0
2016-Aug-26 20:31N 33°44' W 118°15'0 0.0
2016-Aug-26 19:34N 33°44' W 118°15'0 0.0
2016-Aug-26 18:34N 33°44' W 118°15'0 0.0
2016-Aug-26 17:34N 33°44' W 118°15'0 0.0
2016-Aug-26 16:34N 33°44' W 118°15'0 0.0
2016-Aug-26 15:33N 33°44' W 118°15'0 0.0
2016-Aug-26 14:33N 33°44' W 118°15'0 0.0
2016-Aug-26 13:34N 33°44' W 118°15'0 0.0
2016-Aug-26 12:33N 33°44' W 118°15'0 0.0
2016-Aug-26 11:34N 33°44' W 118°15'0 0.0
2016-Aug-26 10:34N 33°44' W 118°15'0 0.0
2016-Aug-26 09:34N 33°44' W 118°15'0 0.0
2016-Aug-26 08:34N 33°44' W 118°15'0 0.0
2016-Aug-26 07:34N 33°44' W 118°15'0 0.0
2016-Aug-26 06:34N 33°44' W 118°15'0 0.0
2016-Aug-26 04:34N 33°44' W 118°15'0 0.0
2016-Aug-26 03:33N 33°44' W 118°15'0 0.0
2016-Aug-26 02:33N 33°44' W 118°15'0 0.1
2016-Aug-26 01:33N 33°44' W 118°15'0 0.1
2016-Aug-26 00:34N 33°44' W 118°15'0 0.0
2016-Aug-25 23:34N 33°44' W 118°15'0 0.0
2016-Aug-25 22:34N 33°44' W 118°15'0 0.0
2016-Aug-25 21:34N 33°44' W 118°15'0 0.0
2016-Aug-25 20:33N 33°44' W 118°15'0 0.0
2016-Aug-25 19:34N 33°44' W 118°15'0 0.0
2016-Aug-25 18:28N 33°44' W 118°15'0 0.0
2016-Aug-25 17:33N 33°44' W 118°15'0 0.0
2016-Aug-25 16:34N 33°44' W 118°15'0 0.0
2016-Aug-25 15:33N 33°44' W 118°15'0 0.0
2016-Aug-25 14:33N 33°44' W 118°15'0 0.0
2016-Aug-25 13:33N 33°44' W 118°15'0 0.0
2016-Aug-25 12:34N 33°44' W 118°15'0 0.0
2016-Aug-25 11:34N 33°44' W 118°15'0 0.0
2016-Aug-25 10:34N 33°44' W 118°15'0 0.0
2016-Aug-25 09:33N 33°44' W 118°15'0 0.0
2016-Aug-25 08:33N 33°44' W 118°15'0 0.0
2016-Aug-25 07:34N 33°44' W 118°15'0 0.0
2016-Aug-25 06:34N 33°44' W 118°15'0 0.0
2016-Aug-25 04:33N 33°44' W 118°15'0 0.0
2016-Aug-25 03:34N 33°44' W 118°15'0 0.0
2016-Aug-25 02:34N 33°44' W 118°15'0 0.0
2016-Aug-25 01:33N 33°44' W 118°15'0 0.0
2016-Aug-25 00:34N 33°44' W 118°15'0 0.0
2016-Aug-24 23:34N 33°44' W 118°15'0 0.0
2016-Aug-24 22:33N 33°44' W 118°15'0 0.0
2016-Aug-24 21:34N 33°44' W 118°15'0 0.0
2016-Aug-24 20:34N 33°44' W 118°15'0 0.0
2016-Aug-24 19:33N 33°44' W 118°15'0 0.0
2016-Aug-24 18:34N 33°44' W 118°15'0 0.0
2016-Aug-24 17:34N 33°44' W 118°15'0 0.0
2016-Aug-24 16:34N 33°44' W 118°15'0 0.0
2016-Aug-24 15:34N 33°44' W 118°15'0 0.0
2016-Aug-24 14:34N 33°44' W 118°15'2 1.9
2016-Aug-24 13:34N 33°42' W 118°14'2 1.9
2016-Aug-24 12:33N 33°40' W 118°14'3 2.6
2016-Aug-24 11:34N 33°38' W 118°16'6 5.5
2016-Aug-24 10:34N 33°36' W 118°22'9 9.3
2016-Aug-24 09:34N 33°36' W 118°33'10 9.9
2016-Aug-24 08:34N 33°37' W 118°45'10 9.9
2016-Aug-24 07:33N 33°38' W 118°57'10 9.8
2016-Aug-24 06:34N 33°38' W 119°08'2410.8
2016-Aug-24 04:18N 33°38' W 119°38'1013.1
2016-Aug-24 03:33N 33°38' W 119°49'1918.6
2016-Aug-24 02:33N 33°38' W 120°12'1919.3
2016-Aug-24 01:33N 33°38' W 120°35'2019.6
2016-Aug-24 00:33N 33°38' W 120°59'1919.2
2016-Aug-23 23:33N 33°38' W 121°21'1919.2
2016-Aug-23 22:33N 33°38' W 121°45'1919.2
2016-Aug-23 21:33N 33°38' W 122°08'1919.1
2016-Aug-23 20:33N 33°38' W 122°31'2119.4
2016-Aug-23 19:29N 33°38' W 122°56'1819.3
2016-Aug-23 18:33N 33°38' W 123°17'1919.5
2016-Aug-23 17:33N 33°38' W 123°40'29319.3
2016-Aug-23 02:21N 35°51' W 128°58'  
Track history (hours):
 
Tides and Currents Weather Stations Pressure Air Temp Water Temp Dewpoint Dewpoint Depression Visibility Wind Speed Wind Dir Waves Ship Positions

Ever Unicorn

Last reported at 2016-Aug-30 15:16 UTC. Time now 2016-Aug-30 20:50 UTC.
Position N 38°13' W 125°30'.

Length 285 m; draft 11.2 m.

Type: Ship (hazmat cat D). MMSI: 564995000.

Date/timePositionNaut miles runAvg speedWind from/ knotsBaromVisibWave heightAir tempDewpointWater temp
2016-Aug-30 15:16N 38°13' W 125°30'1312.5
2016-Aug-30 14:14N 38°12' W 125°13'912.8
2016-Aug-30 13:33N 38°12' W 125°02'1313.0
2016-Aug-30 12:33N 38°12' W 124°46'1313.2
2016-Aug-30 11:33N 38°11' W 124°29'1313.5
2016-Aug-30 10:33N 38°11' W 124°12'1313.1
2016-Aug-30 09:33N 38°10' W 123°55'1312.6
2016-Aug-30 08:33N 38°10' W 123°39'1212.5
2016-Aug-30 07:34N 38°09' W 123°23'9 9.2
2016-Aug-30 06:33N 38°04' W 123°14'9 9.3
2016-Aug-30 05:33N 37°57' W 123°06'9 9.3
2016-Aug-30 04:33N 37°53' W 122°55'9 9.2
2016-Aug-30 03:33N 37°48' W 122°45'9 9.3
2016-Aug-30 02:33N 37°47' W 122°34'1010.0
2016-Aug-30 01:33N 37°48' W 122°21'1 0.6
2016-Aug-30 00:31N 37°48' W 122°20'0 0.0
2016-Aug-29 23:34N 37°48' W 122°20'0 0.0
2016-Aug-29 22:34N 37°48' W 122°20'0 0.0
2016-Aug-29 21:33N 37°48' W 122°20'0 0.0
2016-Aug-29 20:34N 37°48' W 122°20'0 0.0
2016-Aug-29 19:33N 37°48' W 122°20'0 0.0
2016-Aug-29 18:34N 37°48' W 122°20'0 0.0
2016-Aug-29 17:34N 37°48' W 122°20'0 0.0
2016-Aug-29 16:34N 37°48' W 122°20'0 0.0
2016-Aug-29 15:34N 37°48' W 122°20'0 0.0
2016-Aug-29 14:33N 37°48' W 122°20'0 0.0
2016-Aug-29 13:34N 37°48' W 122°20'0 0.0
2016-Aug-29 12:34N 37°48' W 122°20'0 0.0
2016-Aug-29 11:34N 37°48' W 122°20'0 0.0
2016-Aug-29 10:34N 37°48' W 122°20'0 0.0
2016-Aug-29 09:34N 37°48' W 122°20'0 0.0
2016-Aug-29 08:34N 37°48' W 122°20'0 0.0
2016-Aug-29 07:34N 37°48' W 122°20'0 0.0
2016-Aug-29 06:34N 37°48' W 122°20'0 0.0
2016-Aug-29 05:34N 37°48' W 122°20'0 0.0
2016-Aug-29 04:34N 37°48' W 122°20'0 0.0
2016-Aug-29 03:34N 37°48' W 122°20'0 0.0
2016-Aug-29 02:34N 37°48' W 122°20'0 0.0
2016-Aug-29 01:34N 37°48' W 122°20'0 0.0
2016-Aug-29 00:34N 37°48' W 122°20'0 0.0
2016-Aug-28 23:34N 37°48' W 122°20'1 0.7
2016-Aug-28 22:34N 37°49' W 122°20'9 9.1
2016-Aug-28 21:33N 37°48' W 122°31'9 8.8
2016-Aug-28 20:34N 37°42' W 122°40'7 7.0
2016-Aug-28 19:34N 37°35' W 122°40'9 8.5
2016-Aug-28 18:34N 37°27' W 122°40'9 9.1
2016-Aug-28 17:34N 37°18' W 122°40'1110.5
2016-Aug-28 16:33N 37°07' W 122°42'1111.0
2016-Aug-28 15:34N 36°56' W 122°44'0 0.4
2016-Aug-28 14:34N 36°56' W 122°45'0 0.4
2016-Aug-28 13:33N 36°56' W 122°45'0 0.3
2016-Aug-28 12:34N 36°56' W 122°45'0 0.3
2016-Aug-28 11:34N 36°56' W 122°46'0 0.4
2016-Aug-28 10:33N 36°56' W 122°46'0 0.5
2016-Aug-28 09:34N 36°56' W 122°47'0 0.4
2016-Aug-28 08:33N 36°56' W 122°47'0 0.4
2016-Aug-28 07:34N 36°56' W 122°48'0 0.3
2016-Aug-28 06:34N 36°56' W 122°48'0 0.2
2016-Aug-28 05:34N 36°56' W 122°48'0 0.2
2016-Aug-28 04:33N 36°56' W 122°48'4 4.1
2016-Aug-28 03:33N 36°53' W 122°44'1313.2
2016-Aug-28 02:34N 36°44' W 122°31'1312.7
2016-Aug-28 01:33N 36°34' W 122°22'1313.2
2016-Aug-28 00:33N 36°22' W 122°15'1313.3
2016-Aug-27 23:33N 36°10' W 122°07'1313.3
2016-Aug-27 22:33N 35°59' W 121°59'1313.1
2016-Aug-27 21:33N 35°48' W 121°51'1313.1
2016-Aug-27 20:33N 35°36' W 121°43'1312.7
2016-Aug-27 19:33N 35°26' W 121°34'1312.8
2016-Aug-27 18:33N 35°15' W 121°26'1312.9
2016-Aug-27 17:33N 35°03' W 121°18'1312.9
2016-Aug-27 16:33N 34°52' W 121°11'1313.0
2016-Aug-27 15:33N 34°41' W 121°02'3812.1
2016-Aug-27 12:23N 34°20' W 120°24'1713.5
2016-Aug-27 11:07N 34°15' W 120°03'812.9
2016-Aug-27 10:32N 34°13' W 119°55'1512.4
2016-Aug-27 09:20N 34°09' W 119°37'1012.9
2016-Aug-27 08:33N 34°07' W 119°26'1412.6
2016-Aug-27 07:27N 34°02' W 119°10'1112.2
2016-Aug-27 06:32N 33°56' W 118°58'2211.3
2016-Aug-27 04:33N 33°45' W 118°35'1111.3
2016-Aug-27 03:33N 33°40' W 118°23'7 6.8
2016-Aug-27 02:33N 33°43' W 118°16'1 0.8
2016-Aug-27 01:32N 33°44' W 118°15'0 0.0
2016-Aug-27 00:34N 33°44' W 118°15'0 0.0
2016-Aug-26 23:33N 33°44' W 118°15'0 0.0
2016-Aug-26 22:30N 33°44' W 118°15'0 0.0
2016-Aug-26 21:05N 33°44' W 118°15'0 0.0
2016-Aug-26 20:31N 33°44' W 118°15'0 0.0
2016-Aug-26 19:34N 33°44' W 118°15'0 0.0
2016-Aug-26 18:34N 33°44' W 118°15'0 0.0
2016-Aug-26 17:34N 33°44' W 118°15'0 0.0
2016-Aug-26 16:34N 33°44' W 118°15'0 0.0
2016-Aug-26 15:33N 33°44' W 118°15'0 0.0
2016-Aug-26 14:33N 33°44' W 118°15'0 0.0
2016-Aug-26 13:34N 33°44' W 118°15'0 0.0
2016-Aug-26 12:33N 33°44' W 118°15'0 0.0
2016-Aug-26 11:34N 33°44' W 118°15'0 0.0
2016-Aug-26 10:34N 33°44' W 118°15'0 0.0
2016-Aug-26 09:34N 33°44' W 118°15'0 0.0
2016-Aug-26 08:34N 33°44' W 118°15'0 0.0
2016-Aug-26 07:34N 33°44' W 118°15'0 0.0
2016-Aug-26 06:34N 33°44' W 118°15'0 0.0
2016-Aug-26 04:34N 33°44' W 118°15'0 0.0
2016-Aug-26 03:33N 33°44' W 118°15'0 0.0
2016-Aug-26 02:33N 33°44' W 118°15'0 0.1
2016-Aug-26 01:33N 33°44' W 118°15'0 0.1
2016-Aug-26 00:34N 33°44' W 118°15'0 0.0
2016-Aug-25 23:34N 33°44' W 118°15'0 0.0
2016-Aug-25 22:34N 33°44' W 118°15'0 0.0
2016-Aug-25 21:34N 33°44' W 118°15'0 0.0
2016-Aug-25 20:33N 33°44' W 118°15'0 0.0
2016-Aug-25 19:34N 33°44' W 118°15'0 0.0
2016-Aug-25 18:28N 33°44' W 118°15'0 0.0
2016-Aug-25 17:33N 33°44' W 118°15'0 0.0
2016-Aug-25 16:34N 33°44' W 118°15'0 0.0
2016-Aug-25 15:33N 33°44' W 118°15'0 0.0
2016-Aug-25 14:33N 33°44' W 118°15'0 0.0
2016-Aug-25 13:33N 33°44' W 118°15'0 0.0
2016-Aug-25 12:34N 33°44' W 118°15'0 0.0
2016-Aug-25 11:34N 33°44' W 118°15'0 0.0
2016-Aug-25 10:34N 33°44' W 118°15'0 0.0
2016-Aug-25 09:33N 33°44' W 118°15'0 0.0
2016-Aug-25 08:33N 33°44' W 118°15'0 0.0
2016-Aug-25 07:34N 33°44' W 118°15'0 0.0
2016-Aug-25 06:34N 33°44' W 118°15'0 0.0
2016-Aug-25 04:33N 33°44' W 118°15'0 0.0
2016-Aug-25 03:34N 33°44' W 118°15'0 0.0
2016-Aug-25 02:34N 33°44' W 118°15'0 0.0
2016-Aug-25 01:33N 33°44' W 118°15'0 0.0
2016-Aug-25 00:34N 33°44' W 118°15'0 0.0
2016-Aug-24 23:34N 33°44' W 118°15'0 0.0
2016-Aug-24 22:33N 33°44' W 118°15'0 0.0
2016-Aug-24 21:34N 33°44' W 118°15'0 0.0
2016-Aug-24 20:34N 33°44' W 118°15'0 0.0
2016-Aug-24 19:33N 33°44' W 118°15'0 0.0
2016-Aug-24 18:34N 33°44' W 118°15'0 0.0
2016-Aug-24 17:34N 33°44' W 118°15'0 0.0
2016-Aug-24 16:34N 33°44' W 118°15'0 0.0
2016-Aug-24 15:34N 33°44' W 118°15'0 0.0
2016-Aug-24 14:34N 33°44' W 118°15'2 1.9
2016-Aug-24 13:34N 33°42' W 118°14'2 1.9
2016-Aug-24 12:33N 33°40' W 118°14'3 2.6
2016-Aug-24 11:34N 33°38' W 118°16'6 5.5
2016-Aug-24 10:34N 33°36' W 118°22'9 9.3
2016-Aug-24 09:34N 33°36' W 118°33'10 9.9
2016-Aug-24 08:34N 33°37' W 118°45'10 9.9
2016-Aug-24 07:33N 33°38' W 118°57'10 9.8
2016-Aug-24 06:34N 33°38' W 119°08'2410.8
2016-Aug-24 04:18N 33°38' W 119°38'1013.1
2016-Aug-24 03:33N 33°38' W 119°49'1918.6
2016-Aug-24 02:33N 33°38' W 120°12'1919.3
2016-Aug-24 01:33N 33°38' W 120°35'2019.6
2016-Aug-24 00:33N 33°38' W 120°59'1919.2
2016-Aug-23 23:33N 33°38' W 121°21'1919.2
2016-Aug-23 22:33N 33°38' W 121°45'1919.2
2016-Aug-23 21:33N 33°38' W 122°08'1919.1
2016-Aug-23 20:33N 33°38' W 122°31'2119.4
2016-Aug-23 19:29N 33°38' W 122°56'1819.3
2016-Aug-23 18:33N 33°38' W 123°17'1919.5
2016-Aug-23 17:33N 33°38' W 123°40'29319.3
2016-Aug-23 02:21N 35°51' W 128°58'  

Dump ship's entire track history